CheckWX is a tool to help pilots better visualize weather data.  It is not intended as a substitute for an official pre-flight weather briefing.

05:35:57 UTC

LWSK TAF
Skopje Alexander the Great Airport
Skopje, Macedonia
TAF LWSK 200230Z 2003/2103 VRB02KT CAVOK TEMPO 2012/2018 36010KT

Feb-20@
03:00 UTC

Feb-20 @ 03:00 UTC

Feb-21@
03:00 UTC

Feb-21 @ 03:00 UTC

TAF LWSK 200230Z 2003/2103 VRB02KT CAVOK
Wind
  • Variable at 2 KTS
Visibility
10,000+ meters
Conditions
No significant weather
Cloud Levels
  • No significant clouds

Feb-20@
12:00 UTC

Feb-20 @ 12:00 UTC

Feb-20@
18:00 UTC

Feb-20 @ 18:00 UTC

TEMPO 2012/2018 36010KT

Temporary

TemporaryChanges expected for less than half the time period

Wind
  • 360° at 10 KTS